Accueil
METAR-TAF:

METAR-TAF

Aéroports :

Aéroport Konrad-Adenauer de Cologne/Bonn

Cologne, Allemagne

latitude: 50-52N, longitude: 007-10E, altitude: 91 m

Observation

Le bulletin a été fait il y a 15 minutes, à 19:20 UTC
Vent calme
Température 10°C
Humidité 93%
Pression 1025 hPa
Visibilité 10 km ou plus
Nuages épars à une hauteur de 4000 ft

METAR: EDDK 191920Z 00000KT 9999 SCT040 10/09 Q1025 NOSIG

Heure: 21:35 (19:35 UTC)

Prévision

Le bulletin a été fait il y a 2 heures et 35 minutes, à 17:00 UTC
Prévision valable du 19 à 18 UTC au 20 à 24 UTC
Vent 3 kt de direction variable
Visibilité 10 km ou plus
Quelques nuages à une hauteur de 3000 ft
Probabilité 30% :
Temporairement
du 20 à 06 UTC au 20 à 09 UTC
Visibilité: 4000 m
brume
Temporairement
du 20 à 11 UTC au 20 à 17 UTC
Vent 5 kt de nord

TAF: EDDK 191700Z 1918/2024 VRB03KT 9999 FEW030 PROB30 TEMPO 2006/2009 4000 BR TEMPO 2011/2017 35005KT

Observations et prévisions météorologiques de plus de 4000 aéroports (messages METAR et TAF).

Les stations disponibles sont représentées par des disques jaunes et rouges sur la carte.

Passer la souris dessus pour voir le nom de la station.

Cliquer dessus pour voir les observations et prévisions météorologiques.

Pour changer de carte: cliquez sur les boutons verts avec une croix noire pour zoomer, sur le bouton vert avec un tiret pour effectuer un zoom arrière, ou sur les flèches vertes pour les cartes adjacentes.


METAR-TAF: